HAZ6321 ZSHC-RKPC
Flight info
| Callsign | HAZ6321 |
|---|---|
| Flight time | N/A |
| Altitude | 37100 |
| Route | OKTUG B221 NINAS G327 LAMEN/N0455F371 A593 SADLI Y590 ELGEP Y722 SOSDO SOSDO2M |
| Aircraft | A320/M-SDE3FGHIRWY/LB1 |
Departure
| Time | 2026-04-30 21:50 |
|---|---|
| Airport | Hangzhou Xiaoshan International Airport (ZSHC) |
Arrival
| Time | N/A |
|---|---|
| Airport | Jeju International Airport (RKPC) |
| Time | Latitude | Longitude | Altitude | Speed | Heading |
|---|---|---|---|---|---|
| 2026-04-30 21:30 | 30.23929 | 120.42540 | 31 ft | 0 kts | 229° |
| 2026-04-30 21:42 | 30.23937 | 120.42551 | 32 ft | 2 kts | 232° |
| 2026-04-30 21:43 | 30.23947 | 120.42567 | 32 ft | 2 kts | 239° |
| 2026-04-30 21:43 | 30.23955 | 120.42584 | 31 ft | 2 kts | 257° |
| 2026-04-30 21:43 | 30.23953 | 120.42602 | 28 ft | 2 kts | 323° |
| 2026-04-30 21:43 | 30.23944 | 120.42609 | 32 ft | 1 kts | 337° |
| 2026-04-30 21:44 | 30.23943 | 120.42609 | 32 ft | 0 kts | 337° |
| 2026-04-30 21:45 | 30.23944 | 120.42609 | 32 ft | 1 kts | 337° |
| 2026-04-30 21:45 | 30.23991 | 120.42583 | 31 ft | 9 kts | 335° |
| 2026-04-30 21:45 | 30.24043 | 120.42555 | 32 ft | 8 kts | 334° |
| 2026-04-30 21:45 | 30.24086 | 120.42531 | 32 ft | 6 kts | 333° |
| 2026-04-30 21:46 | 30.24124 | 120.42508 | 32 ft | 9 kts | 332° |
| 2026-04-30 21:46 | 30.24246 | 120.42454 | 32 ft | 21 kts | 335° |
| 2026-04-30 21:46 | 30.24314 | 120.42382 | 32 ft | 3 kts | 246° |
| 2026-04-30 21:46 | 30.24307 | 120.42366 | 32 ft | 2 kts | 243° |
| 2026-04-30 21:47 | 30.24278 | 120.42304 | 32 ft | 16 kts | 242° |
| 2026-04-30 21:47 | 30.24222 | 120.42182 | 32 ft | 18 kts | 242° |
| 2026-04-30 21:47 | 30.24163 | 120.42049 | 32 ft | 19 kts | 243° |
| 2026-04-30 21:47 | 30.24101 | 120.41904 | 32 ft | 21 kts | 244° |
| 2026-04-30 21:48 | 30.24033 | 120.41748 | 32 ft | 22 kts | 243° |
| 2026-04-30 21:48 | 30.23962 | 120.41586 | 32 ft | 24 kts | 243° |
| 2026-04-30 21:48 | 30.23884 | 120.41410 | 32 ft | 25 kts | 243° |
| 2026-04-30 21:48 | 30.23803 | 120.41229 | 32 ft | 26 kts | 242° |
| 2026-04-30 21:49 | 30.23814 | 120.41097 | 33 ft | 17 kts | 329° |
| 2026-04-30 21:49 | 30.23918 | 120.41070 | 34 ft | 16 kts | 39° |
| 2026-04-30 21:49 | 30.23982 | 120.41197 | 33 ft | 31 kts | 63° |
| 2026-04-30 21:49 | 30.24200 | 120.41688 | 33 ft | 103 kts | 63° |
| 2026-04-30 21:50 | 30.24610 | 120.42626 | 30 ft | 156 kts | 63° |
| 2026-04-30 21:50 | 30.25128 | 120.43823 | 477 ft | 167 kts | 63° |
| 2026-04-30 21:50 | 30.25659 | 120.45015 | 1204 ft | 166 kts | 63° |
| 2026-04-30 21:50 | 30.26190 | 120.46204 | 1875 ft | 170 kts | 63° |
| 2026-04-30 21:51 | 30.26765 | 120.47490 | 2243 ft | 190 kts | 62° |
| 2026-04-30 21:51 | 30.27408 | 120.48929 | 2537 ft | 213 kts | 62° |
| 2026-04-30 21:51 | 30.28124 | 120.50541 | 2900 ft | 238 kts | 62° |
| 2026-04-30 21:51 | 30.28916 | 120.52325 | 3393 ft | 259 kts | 62° |
| 2026-04-30 21:52 | 30.29747 | 120.54208 | 4234 ft | 264 kts | 61° |
| 2026-04-30 21:52 | 30.30584 | 120.56104 | 5211 ft | 265 kts | 60° |
| 2026-04-30 21:52 | 30.31426 | 120.58012 | 6121 ft | 268 kts | 59° |
| 2026-04-30 21:52 | 30.32111 | 120.60044 | 6940 ft | 278 kts | 77° |
| 2026-04-30 21:53 | 30.31956 | 120.62315 | 7684 ft | 293 kts | 108° |
| 2026-04-30 21:53 | 30.30809 | 120.64278 | 8439 ft | 303 kts | 140° |
| 2026-04-30 21:53 | 30.28979 | 120.65538 | 9230 ft | 308 kts | 154° |
| 2026-04-30 21:53 | 30.27044 | 120.66661 | 9792 ft | 314 kts | 154° |
| 2026-04-30 21:54 | 30.25083 | 120.67785 | 9937 ft | 315 kts | 154° |
| 2026-04-30 21:54 | 30.23095 | 120.68925 | 9957 ft | 314 kts | 154° |
| 2026-04-30 21:54 | 30.21147 | 120.70062 | 9955 ft | 314 kts | 151° |
| 2026-04-30 21:54 | 30.19365 | 120.71521 | 9966 ft | 314 kts | 137° |
| 2026-04-30 21:55 | 30.17921 | 120.73407 | 9968 ft | 313 kts | 123° |
| 2026-04-30 21:55 | 30.16759 | 120.75536 | 9965 ft | 313 kts | 120° |
| 2026-04-30 21:55 | 30.15605 | 120.77675 | 9965 ft | 313 kts | 120° |
| 2026-04-30 21:55 | 30.14451 | 120.79810 | 9961 ft | 313 kts | 120° |
| 2026-04-30 21:56 | 30.13306 | 120.81953 | 9956 ft | 313 kts | 117° |
| 2026-04-30 21:56 | 30.12445 | 120.84244 | 9961 ft | 311 kts | 106° |
| 2026-04-30 21:56 | 30.11737 | 120.86609 | 9963 ft | 311 kts | 107° |
| 2026-04-30 21:56 | 30.11022 | 120.88970 | 9962 ft | 312 kts | 107° |
| 2026-04-30 21:57 | 30.10360 | 120.91329 | 9962 ft | 310 kts | 100° |
| 2026-04-30 21:57 | 30.10082 | 120.93788 | 9966 ft | 307 kts | 87° |
| 2026-04-30 21:57 | 30.10258 | 120.96221 | 9966 ft | 303 kts | 74° |
| 2026-04-30 21:57 | 30.10886 | 120.98560 | 10293 ft | 313 kts | 62° |
| 2026-04-30 21:58 | 30.11970 | 121.00820 | 10558 ft | 331 kts | 50° |
| 2026-04-30 21:58 | 30.13392 | 121.03023 | 10771 ft | 354 kts | 49° |
| 2026-04-30 21:58 | 30.14911 | 121.05368 | 11060 ft | 371 kts | 50° |
| 2026-04-30 21:58 | 30.16490 | 121.07818 | 11660 ft | 378 kts | 50° |
| 2026-04-30 21:59 | 30.18066 | 121.10275 | 12316 ft | 383 kts | 50° |
| 2026-04-30 21:59 | 30.19662 | 121.12769 | 12976 ft | 388 kts | 50° |
| 2026-04-30 21:59 | 30.21275 | 121.15295 | 13626 ft | 393 kts | 50° |
| 2026-04-30 22:00 | 30.24549 | 121.20423 | 14725 ft | 402 kts | 49° |
| 2026-04-30 22:00 | 30.27850 | 121.25782 | 15762 ft | 414 kts | 51° |
| 2026-04-30 22:00 | 30.29442 | 121.28583 | 16259 ft | 419 kts | 52° |
| 2026-04-30 22:01 | 30.31025 | 121.31441 | 16745 ft | 424 kts | 52° |
| 2026-04-30 22:01 | 30.32612 | 121.34334 | 17229 ft | 429 kts | 52° |
| 2026-04-30 22:01 | 30.34224 | 121.37261 | 17680 ft | 433 kts | 52° |
| 2026-04-30 22:01 | 30.35867 | 121.40209 | 18108 ft | 438 kts | 52° |
| 2026-04-30 22:02 | 30.37544 | 121.43174 | 18530 ft | 442 kts | 51° |
| 2026-04-30 22:02 | 30.39250 | 121.46157 | 18941 ft | 445 kts | 50° |
| 2026-04-30 22:02 | 30.40970 | 121.49156 | 19366 ft | 448 kts | 50° |
| 2026-04-30 22:02 | 30.42700 | 121.52177 | 19787 ft | 451 kts | 50° |
| 2026-04-30 22:03 | 30.44434 | 121.55213 | 20225 ft | 454 kts | 50° |
| 2026-04-30 22:03 | 30.46180 | 121.58276 | 20652 ft | 456 kts | 50° |
| 2026-04-30 22:03 | 30.47955 | 121.61400 | 21080 ft | 459 kts | 50° |
| 2026-04-30 22:03 | 30.49717 | 121.64507 | 21487 ft | 462 kts | 50° |
| 2026-04-30 22:04 | 30.51484 | 121.67631 | 21903 ft | 465 kts | 50° |
| 2026-04-30 22:04 | 30.53262 | 121.70782 | 22309 ft | 468 kts | 50° |
| 2026-04-30 22:04 | 30.56850 | 121.77137 | 23078 ft | 474 kts | 49° |
| 2026-04-30 22:05 | 30.58662 | 121.80345 | 23456 ft | 477 kts | 49° |
| 2026-04-30 22:05 | 30.60485 | 121.83568 | 23784 ft | 480 kts | 49° |
| 2026-04-30 22:05 | 30.62321 | 121.86815 | 24093 ft | 482 kts | 49° |
| 2026-04-30 22:05 | 30.64168 | 121.90086 | 24406 ft | 485 kts | 49° |
| 2026-04-30 22:06 | 30.66023 | 121.93376 | 24706 ft | 488 kts | 49° |
| 2026-04-30 22:06 | 30.69753 | 122.00021 | 25302 ft | 494 kts | 49° |
| 2026-04-30 22:06 | 30.71630 | 122.03372 | 25589 ft | 496 kts | 49° |
| 2026-04-30 22:07 | 30.73521 | 122.06746 | 25858 ft | 499 kts | 49° |
| 2026-04-30 22:07 | 30.75419 | 122.10132 | 26143 ft | 501 kts | 48° |
| 2026-04-30 22:07 | 30.77516 | 122.13328 | 26415 ft | 493 kts | 39° |
| 2026-04-30 22:07 | 30.79956 | 122.16062 | 26680 ft | 483 kts | 30° |
| 2026-04-30 22:08 | 30.82670 | 122.18302 | 26946 ft | 474 kts | 21° |
| 2026-04-30 22:08 | 30.85576 | 122.20016 | 27229 ft | 463 kts | 12° |
| 2026-04-30 22:08 | 30.88585 | 122.21193 | 27640 ft | 452 kts | 5° |
| 2026-04-30 22:08 | 30.91606 | 122.22199 | 28074 ft | 454 kts | 8° |
| 2026-04-30 22:09 | 30.94503 | 122.23841 | 28480 ft | 475 kts | 24° |
| 2026-04-30 22:09 | 30.97025 | 122.26457 | 28886 ft | 498 kts | 40° |
| 2026-04-30 22:09 | 30.98913 | 122.29931 | 29282 ft | 520 kts | 58° |
| 2026-04-30 22:09 | 30.99917 | 122.34049 | 29662 ft | 539 kts | 77° |
| 2026-04-30 22:10 | 31.00061 | 122.38446 | 29992 ft | 546 kts | 85° |
| 2026-04-30 22:10 | 31.00065 | 122.42882 | 30326 ft | 547 kts | 85° |
| 2026-04-30 22:10 | 31.00052 | 122.45877 | 30546 ft | 547 kts | 85° |
| 2026-04-30 22:10 | 31.00027 | 122.50304 | 30885 ft | 546 kts | 85° |
| 2026-04-30 22:11 | 30.99991 | 122.59152 | 31551 ft | 545 kts | 85° |
| 2026-04-30 22:11 | 30.99984 | 122.65002 | 32004 ft | 544 kts | 85° |
| 2026-04-30 22:11 | 30.99986 | 122.67985 | 32236 ft | 544 kts | 85° |
| 2026-04-30 22:12 | 30.99995 | 122.72388 | 32570 ft | 543 kts | 85° |
| 2026-04-30 22:12 | 31.00004 | 122.76785 | 32909 ft | 543 kts | 85° |
| 2026-04-30 22:12 | 31.00011 | 122.81183 | 33247 ft | 542 kts | 85° |
| 2026-04-30 22:12 | 31.00017 | 122.85578 | 33585 ft | 542 kts | 85° |
| 2026-04-30 22:13 | 31.00018 | 122.89966 | 33909 ft | 541 kts | 84° |
| 2026-04-30 22:13 | 31.00251 | 122.94315 | 34205 ft | 534 kts | 75° |
| 2026-04-30 22:13 | 31.00994 | 122.98511 | 34486 ft | 524 kts | 66° |
| 2026-04-30 22:13 | 31.02208 | 123.02466 | 34771 ft | 513 kts | 57° |
| 2026-04-30 22:14 | 31.03836 | 123.06123 | 35030 ft | 502 kts | 48° |
| 2026-04-30 22:14 | 31.05790 | 123.09446 | 35284 ft | 495 kts | 44° |
| 2026-04-30 22:14 | 31.07804 | 123.12704 | 35543 ft | 495 kts | 44° |
| 2026-04-30 22:14 | 31.09813 | 123.15962 | 35801 ft | 494 kts | 44° |
| 2026-04-30 22:15 | 31.11816 | 123.19224 | 36023 ft | 495 kts | 44° |
| 2026-04-30 22:15 | 31.13818 | 123.22495 | 36259 ft | 495 kts | 44° |
| 2026-04-30 22:15 | 31.15819 | 123.25767 | 36501 ft | 495 kts | 44° |
| 2026-04-30 22:15 | 31.17814 | 123.29037 | 36738 ft | 495 kts | 44° |
| 2026-04-30 22:16 | 31.19809 | 123.32318 | 36939 ft | 495 kts | 44° |
| 2026-04-30 22:16 | 31.21799 | 123.35596 | 37131 ft | 496 kts | 45° |
| 2026-04-30 22:17 | 31.27837 | 123.45516 | 37201 ft | 502 kts | 45° |
| 2026-04-30 22:17 | 31.33941 | 123.55551 | 37196 ft | 503 kts | 45° |
| 2026-04-30 22:18 | 31.40057 | 123.65566 | 37197 ft | 505 kts | 45° |
| 2026-04-30 22:19 | 31.46199 | 123.75604 | 37197 ft | 506 kts | 45° |
| 2026-04-30 22:20 | 31.52339 | 123.85695 | 37196 ft | 508 kts | 45° |
| 2026-04-30 22:20 | 31.58489 | 123.95845 | 37190 ft | 510 kts | 46° |
| 2026-04-30 22:21 | 31.60334 | 123.99443 | 37183 ft | 521 kts | 56° |
| 2026-04-30 22:21 | 31.61731 | 124.03409 | 37182 ft | 531 kts | 66° |
| 2026-04-30 22:21 | 31.63651 | 124.11822 | 37174 ft | 535 kts | 70° |
| 2026-04-30 22:22 | 31.65533 | 124.20290 | 37179 ft | 537 kts | 70° |
| 2026-04-30 22:22 | 31.67428 | 124.28768 | 37188 ft | 538 kts | 70° |
| 2026-04-30 22:23 | 31.69317 | 124.37269 | 37190 ft | 538 kts | 71° |
| 2026-04-30 22:23 | 31.71195 | 124.45783 | 37187 ft | 539 kts | 71° |
| 2026-04-30 22:24 | 31.73070 | 124.54308 | 37192 ft | 539 kts | 71° |
| 2026-04-30 22:24 | 31.74942 | 124.62900 | 37193 ft | 539 kts | 72° |
| 2026-04-30 22:25 | 31.76807 | 124.71433 | 37187 ft | 539 kts | 72° |
| 2026-04-30 22:25 | 31.78676 | 124.79965 | 37175 ft | 540 kts | 72° |
| 2026-04-30 22:26 | 31.81448 | 124.92804 | 37175 ft | 540 kts | 73° |
| 2026-04-30 22:27 | 31.82343 | 125.01565 | 37167 ft | 543 kts | 92° |
| 2026-04-30 22:27 | 31.80619 | 125.14668 | 37159 ft | 541 kts | 103° |
| 2026-04-30 22:28 | 31.78479 | 125.27694 | 37177 ft | 541 kts | 103° |
| 2026-04-30 22:29 | 31.75610 | 125.45065 | 37179 ft | 542 kts | 104° |
| 2026-04-30 22:31 | 31.74160 | 125.75730 | 37175 ft | 546 kts | 74° |
| 2026-04-30 22:32 | 31.78218 | 125.88098 | 37162 ft | 538 kts | 51° |
| 2026-04-30 22:32 | 31.83199 | 125.94435 | 37159 ft | 521 kts | 30° |
| 2026-04-30 22:33 | 31.92613 | 125.99915 | 37149 ft | 498 kts | 11° |
| 2026-04-30 22:33 | 31.99152 | 126.02685 | 37138 ft | 500 kts | 11° |
| 2026-04-30 22:35 | 32.15572 | 126.09640 | 37141 ft | 503 kts | 11° |
| 2026-04-30 22:36 | 32.32140 | 126.16694 | 37147 ft | 506 kts | 11° |
| 2026-04-30 22:37 | 32.42094 | 126.20923 | 36622 ft | 507 kts | 12° |
| 2026-04-30 22:37 | 32.45420 | 126.22339 | 36023 ft | 510 kts | 12° |
| 2026-04-30 22:37 | 32.52151 | 126.25207 | 34484 ft | 513 kts | 12° |
| 2026-04-30 22:38 | 32.58875 | 126.28092 | 32864 ft | 513 kts | 12° |
| 2026-04-30 22:38 | 32.65613 | 126.30994 | 31252 ft | 511 kts | 12° |
| 2026-04-30 22:39 | 32.68951 | 126.32434 | 30428 ft | 510 kts | 12° |
| 2026-04-30 22:39 | 32.78939 | 126.36730 | 27344 ft | 510 kts | 13° |
| 2026-04-30 22:40 | 32.88950 | 126.41044 | 22773 ft | 509 kts | 14° |
| 2026-04-30 22:41 | 32.97527 | 126.44770 | 19324 ft | 474 kts | 15° |
| 2026-04-30 22:41 | 33.04070 | 126.48989 | 17171 ft | 442 kts | 30° |
| 2026-04-30 22:42 | 33.13175 | 126.56219 | 14579 ft | 424 kts | 30° |
| 2026-04-30 22:43 | 33.17934 | 126.59999 | 13266 ft | 420 kts | 31° |
| 2026-04-30 22:43 | 33.22809 | 126.63680 | 11978 ft | 408 kts | 22° |
| 2026-04-30 22:44 | 33.28221 | 126.65269 | 11035 ft | 402 kts | 358° |
| 2026-04-30 22:45 | 33.38797 | 126.62907 | 11010 ft | 402 kts | 353° |
| 2026-04-30 22:45 | 33.44405 | 126.63596 | 11005 ft | 408 kts | 6° |
| 2026-04-30 22:46 | 33.50007 | 126.64725 | 11013 ft | 408 kts | 6° |
| 2026-04-30 22:47 | 33.60834 | 126.68991 | 10842 ft | 414 kts | 24° |
| 2026-04-30 22:47 | 33.65969 | 126.72119 | 10664 ft | 413 kts | 24° |
| 2026-04-30 22:48 | 33.71087 | 126.75236 | 10480 ft | 408 kts | 24° |
| 2026-04-30 22:49 | 33.78151 | 126.79554 | 10116 ft | 355 kts | 24° |
| 2026-04-30 22:49 | 33.84331 | 126.83344 | 9997 ft | 308 kts | 23° |
| 2026-04-30 22:50 | 33.89176 | 126.90441 | 9659 ft | 280 kts | 75° |
| 2026-04-30 22:51 | 33.90166 | 126.94974 | 9344 ft | 277 kts | 75° |
| 2026-04-30 22:51 | 33.90657 | 126.99497 | 9051 ft | 273 kts | 101° |
| 2026-04-30 22:52 | 33.90075 | 127.01635 | 8978 ft | 267 kts | 121° |
| 2026-04-30 22:52 | 33.87678 | 127.04969 | 8989 ft | 264 kts | 139° |
| 2026-04-30 22:53 | 33.84998 | 127.07945 | 8989 ft | 259 kts | 152° |
| 2026-04-30 22:53 | 33.81907 | 127.10143 | 8993 ft | 258 kts | 154° |
| 2026-04-30 22:53 | 33.80362 | 127.11235 | 8989 ft | 258 kts | 154° |
| 2026-04-30 22:54 | 33.77174 | 127.13108 | 9000 ft | 252 kts | 168° |
| 2026-04-30 22:55 | 33.72105 | 127.14868 | 8993 ft | 252 kts | 168° |
| 2026-04-30 22:55 | 33.68698 | 127.15567 | 8997 ft | 246 kts | 182° |
| 2026-04-30 22:56 | 33.65276 | 127.15699 | 9000 ft | 246 kts | 182° |
| 2026-04-30 22:56 | 33.60206 | 127.15377 | 9001 ft | 241 kts | 196° |
| 2026-04-30 22:57 | 33.56942 | 127.14439 | 9001 ft | 239 kts | 207° |
| 2026-04-30 22:57 | 33.54929 | 127.11551 | 8857 ft | 236 kts | 258° |
| 2026-04-30 22:58 | 33.55552 | 127.07750 | 8303 ft | 237 kts | 288° |
| 2026-04-30 22:59 | 33.57218 | 127.02208 | 7509 ft | 234 kts | 288° |
| 2026-04-30 22:59 | 33.58850 | 126.96722 | 6730 ft | 232 kts | 288° |